Addicks, Texas
Current Conditions -  °F | °C
As of 1:53 PM on Saturday 20 Dec 2014 (Local Time) from KSGR Reporting Station
Overcast Overcast  
Wind Chill: 56°   Ceiling: 1700
Heat Index: 56°   Visibility: 10mi
Dew Point: 50°   Wind: 12mph
Humidity: 80%   Direction: 10°N
Pressure: 30.15"   Gusts: NA
Location:  29.7757°N, 95.6037°W
Report Text: KSGR 201953Z 01010KT 10SM OVC017 13/10 A3015 RMK AO2 SLP211 T01330100
Loading
Personal Weather Stations






























Interactive Weather Map New forecast layout! Learn more

10-Day Weather Forecast

Advertisements
Track Severe Weather on mobile